Time;durP1;ratioP1;P1;durP2;ratioP2;P2;SDS_P1;SDS_P2;PMS_P1;PMS_P2;Temp;Humidity;BMP_temperature;BMP_pressure;BME280_temperature;BME280_humidity;BME280_pressure;Samples;Min_cycle;Max_cycle;Signal;HPM_P1;HPM_P2
2022/08/04 00:01:06;;;;;;;1.77;1.30;;;;;;;;;;5085419;28;20232;-82
2022/08/04 00:03:46;;;;;;;1.60;1.50;;;;;;;;;;5084860;28;20245;-82
2022/08/04 00:06:22;;;;;;;1.38;1.30;;;;;;;;;;5078151;28;20279;-83
2022/08/04 00:08:53;;;;;;;1.40;1.30;;;;;;;;;;5077665;28;20290;-82
2022/08/04 00:11:22;;;;;;;1.88;1.77;;;;;;;;;;5077679;28;20206;-82
2022/08/04 00:13:56;;;;;;;1.50;1.40;;;;;;;;;;5077682;28;20264;-83
2022/08/04 00:16:24;;;;;;;1.42;1.40;;;;;;;;;;5076440;28;20260;-82
2022/08/04 00:19:04;;;;;;;1.40;1.30;;;;;;;;;;5076729;28;20736;-82
2022/08/04 00:21:34;;;;;;;1.30;1.20;;;;;;;;;;5077667;28;20733;-82
2022/08/04 00:24:03;;;;;;;1.50;1.40;;;;;;;;;;5077280;28;20292;-82
2022/08/04 00:26:30;;;;;;;2.40;1.35;;;;;;;;;;5076317;28;20201;-81
2022/08/04 00:28:58;;;;;;;1.30;1.30;;;;;;;;;;5076297;28;20640;-83
2022/08/04 00:31:26;;;;;;;1.35;1.25;;;;;;;;;;5076547;28;20208;-82
2022/08/04 00:33:55;;;;;;;1.55;1.45;;;;;;;;;;5075843;28;20319;-80
2022/08/04 00:36:23;;;;;;;1.42;1.38;;;;;;;;;;5075464;28;20225;-81
2022/08/04 00:38:51;;;;;;;2.60;1.73;;;;;;;;;;5075648;28;20295;-82
2022/08/04 00:41:31;;;;;;;1.75;1.35;;;;;;;;;;5076149;28;20247;-82
2022/08/04 00:44:17;;;;;;;1.30;1.30;;;;;;;;;;5075796;28;20291;-81
2022/08/04 00:47:08;;;;;;;1.48;1.38;;;;;;;;;;5075415;28;20280;-82
2022/08/04 00:50:04;;;;;;;1.30;1.20;;;;;;;;;;5075308;28;20295;-82
2022/08/04 00:52:57;;;;;;;1.10;1.10;;;;;;;;;;5074674;28;20311;-80
2022/08/04 00:56:04;;;;;;;2.35;1.60;;;;;;;;;;5071950;28;20308;-80
2022/08/04 00:58:50;;;;;;;2.15;1.38;;;;;;;;;;5066117;28;20200;-81
2022/08/04 01:01:45;;;;;;;1.65;1.30;;;;;;;;;;5074923;28;20292;-81
2022/08/04 01:04:20;;;;;;;1.38;1.25;;;;;;;;;;5074846;28;20208;-84
2022/08/04 01:07:09;;;;;;;1.60;1.50;;;;;;;;;;5074989;28;20292;-81
2022/08/04 01:09:48;;;;;;;1.40;1.40;;;;;;;;;;5074457;28;20197;-80
2022/08/04 01:12:41;;;;;;;1.13;1.13;;;;;;;;;;5074327;28;20594;-82
2022/08/04 01:15:18;;;;;;;1.55;1.50;;;;;;;;;;5073883;28;20554;-81
2022/08/04 01:18:00;;;;;;;1.50;1.40;;;;;;;;;;5073969;28;20610;-82
2022/08/04 01:20:30;;;;;;;1.20;1.20;;;;;;;;;;5074158;28;20201;-80
2022/08/04 01:23:46;;;;;;;1.10;1.10;;;;;;;;;;5073643;28;20308;-79
2022/08/04 01:26:50;;;;;;;2.10;1.38;;;;;;;;;;5047989;28;20625;-80
2022/08/04 01:29:22;;;;;;;1.48;1.27;;;;;;;;;;5070859;28;20280;-81
2022/08/04 01:32:02;;;;;;;1.52;1.45;;;;;;;;;;5073937;28;20311;-81
2022/08/04 01:34:34;;;;;;;1.35;1.33;;;;;;;;;;5073792;28;20295;-82
2022/08/04 01:37:16;;;;;;;1.50;1.40;;;;;;;;;;5073484;28;20324;-81
2022/08/04 01:39:51;;;;;;;1.25;1.25;;;;;;;;;;5073565;28;20296;-81
2022/08/04 01:42:21;;;;;;;1.20;1.20;;;;;;;;;;5073199;28;20307;-80
2022/08/04 01:44:51;;;;;;;1.52;1.42;;;;;;;;;;5073504;28;20298;-82
2022/08/04 01:47:21;;;;;;;1.40;1.40;;;;;;;;;;5072793;28;20232;-81
2022/08/04 01:49:51;;;;;;;1.95;1.75;;;;;;;;;;5073258;28;20268;-81
2022/08/04 01:52:19;;;;;;;1.50;1.40;;;;;;;;;;5072878;28;20225;-80
2022/08/04 01:54:48;;;;;;;1.30;1.30;;;;;;;;;;5073040;28;20200;-81
2022/08/04 01:57:18;;;;;;;2.22;1.40;;;;;;;;;;5072403;28;20228;-81
2022/08/04 01:59:46;;;;;;;2.05;1.52;;;;;;;;;;5072676;28;20208;-80
2022/08/04 02:02:15;;;;;;;1.70;1.42;;;;;;;;;;5082709;28;20288;-80
2022/08/04 02:04:43;;;;;;;1.45;1.40;;;;;;;;;;5078982;28;20200;-83
2022/08/04 02:07:48;;;;;;;1.80;1.70;;;;;;;;;;5075370;28;20280;-83
2022/08/04 02:10:27;;;;;;;1.50;1.40;;;;;;;;;;5062990;28;20284;-82
2022/08/04 02:13:11;;;;;;;1.55;1.40;;;;;;;;;;5075186;28;20313;-82
2022/08/04 02:15:47;;;;;;;1.10;1.10;;;;;;;;;;5081298;28;20201;-82
2022/08/04 02:18:23;;;;;;;1.58;1.48;;;;;;;;;;5083552;28;20240;-82
2022/08/04 02:20:57;;;;;;;1.75;1.65;;;;;;;;;;5081304;28;20207;-82
2022/08/04 02:23:31;;;;;;;1.38;1.27;;;;;;;;;;5079071;28;20303;-82
2022/08/04 02:26:03;;;;;;;1.67;1.58;;;;;;;;;;5075397;28;20264;-82
2022/08/04 02:28:36;;;;;;;1.60;1.50;;;;;;;;;;5074993;28;20207;-82
2022/08/04 02:31:14;;;;;;;2.08;1.50;;;;;;;;;;5075184;28;20209;-82
2022/08/04 02:33:45;;;;;;;1.67;1.30;;;;;;;;;;5074755;28;20232;-83
2022/08/04 02:36:21;;;;;;;1.70;1.60;;;;;;;;;;5074977;28;20296;-82
2022/08/04 02:38:56;;;;;;;1.25;1.25;;;;;;;;;;5074611;28;20209;-82
2022/08/04 02:41:25;;;;;;;1.58;1.48;;;;;;;;;;5074367;28;20274;-82
2022/08/04 02:43:56;;;;;;;1.45;1.40;;;;;;;;;;5074039;28;20220;-83
2022/08/04 02:46:25;;;;;;;1.95;1.85;;;;;;;;;;5073879;28;20296;-81
2022/08/04 02:48:55;;;;;;;1.80;1.70;;;;;;;;;;5073995;28;20203;-81
2022/08/04 02:51:26;;;;;;;1.45;1.40;;;;;;;;;;5074037;28;20268;-82
2022/08/04 02:53:56;;;;;;;1.70;1.58;;;;;;;;;;5072660;28;20320;-82
2022/08/04 02:56:25;;;;;;;1.55;1.45;;;;;;;;;;5073026;28;20288;-82
2022/08/04 02:58:58;;;;;;;1.60;1.50;;;;;;;;;;5072929;28;20205;-82
2022/08/04 03:01:26;;;;;;;1.52;1.42;;;;;;;;;;5072395;28;20300;-83
2022/08/04 03:04:22;;;;;;;1.60;1.50;;;;;;;;;;5072558;28;20307;-82
2022/08/04 03:07:42;;;;;;;1.98;1.88;;;;;;;;;;5066029;28;20208;-82
2022/08/04 03:10:35;;;;;;;1.30;1.30;;;;;;;;;;5072437;28;20687;-82
2022/08/04 03:13:38;;;;;;;1.50;1.40;;;;;;;;;;5072598;28;20221;-83
2022/08/04 03:16:45;;;;;;;2.63;1.33;;;;;;;;;;5074495;28;20201;-83
2022/08/04 03:20:12;;;;;;;1.27;1.20;;;;;;;;;;5069406;28;20196;-84
2022/08/04 03:23:24;;;;;;;1.58;1.48;;;;;;;;;;5062715;28;20303;-83
2022/08/04 03:26:21;;;;;;;1.50;1.40;;;;;;;;;;5079346;28;20211;-83
2022/08/04 03:29:43;;;;;;;1.20;1.20;;;;;;;;;;5078239;28;20240;-83
2022/08/04 03:32:45;;;;;;;1.77;1.67;;;;;;;;;;5063651;28;20299;-84
2022/08/04 03:36:00;;;;;;;1.45;1.40;;;;;;;;;;5077453;28;20299;-83
2022/08/04 03:38:50;;;;;;;1.60;1.50;;;;;;;;;;5076998;28;20308;-83
2022/08/04 03:41:40;;;;;;;1.50;1.40;;;;;;;;;;5076951;28;20293;-84
2022/08/04 03:44:44;;;;;;;2.13;2.03;;;;;;;;;;5077343;28;20205;-83
2022/08/04 03:47:45;;;;;;;1.40;1.30;;;;;;;;;;5077008;28;20283;-83
2022/08/04 03:50:33;;;;;;;2.90;1.60;;;;;;;;;;5067202;28;20231;-83
2022/08/04 03:53:20;;;;;;;1.58;1.48;;;;;;;;;;5077030;28;20238;-83
2022/08/04 03:56:09;;;;;;;1.52;1.48;;;;;;;;;;5076511;28;20197;-84
2022/08/04 03:59:28;;;;;;;2.33;1.60;;;;;;;;;;5076357;28;20307;-83
2022/08/04 04:02:51;;;;;;;1.38;1.27;;;;;;;;;;5014195;28;20262;-83
2022/08/04 04:06:14;;;;;;;1.33;1.30;;;;;;;;;;5014032;28;20258;-83
2022/08/04 04:09:17;;;;;;;1.50;1.40;;;;;;;;;;5052769;28;20232;-82
2022/08/04 04:12:31;;;;;;;1.45;1.35;;;;;;;;;;5076064;28;20260;-83
2022/08/04 04:15:15;;;;;;;1.40;1.30;;;;;;;;;;5052364;28;20204;-83
2022/08/04 04:18:16;;;;;;;1.10;1.10;;;;;;;;;;5075836;28;20316;-83
2022/08/04 04:20:59;;;;;;;1.25;1.20;;;;;;;;;;5066748;28;20672;-83
2022/08/04 04:23:51;;;;;;;1.40;1.30;;;;;;;;;;5079816;28;20238;-83
2022/08/04 04:26:38;;;;;;;1.30;1.20;;;;;;;;;;5058947;28;20240;-83
2022/08/04 04:30:07;;;;;;;1.38;1.38;;;;;;;;;;5076327;28;20213;-83
2022/08/04 04:33:12;;;;;;;1.30;1.20;;;;;;;;;;5068124;28;20223;-82
2022/08/04 04:35:46;;;;;;;1.42;1.33;;;;;;;;;;5082110;28;20201;-83
2022/08/04 04:38:40;;;;;;;1.38;1.27;;;;;;;;;;5081976;28;20248;-84
2022/08/04 04:41:37;;;;;;;1.27;1.20;;;;;;;;;;5081834;28;20243;-84
2022/08/04 04:44:31;;;;;;;1.10;1.10;;;;;;;;;;5076413;28;20248;-83
2022/08/04 04:47:07;;;;;;;1.35;1.25;;;;;;;;;;5075792;28;20197;-84
2022/08/04 04:49:41;;;;;;;1.35;1.30;;;;;;;;;;5075436;28;20201;-84
2022/08/04 04:52:13;;;;;;;1.00;1.00;;;;;;;;;;5075885;28;20231;-84
2022/08/04 04:54:50;;;;;;;0.93;0.93;;;;;;;;;;5075496;28;20232;-83
2022/08/04 04:57:22;;;;;;;1.27;1.17;;;;;;;;;;5075336;28;20232;-84
2022/08/04 05:00:05;;;;;;;1.38;1.35;;;;;;;;;;5075401;28;20232;-83
2022/08/04 05:03:20;;;;;;;1.67;1.58;;;;;;;;;;5075535;28;20224;-83
2022/08/04 05:06:14;;;;;;;1.40;1.30;;;;;;;;;;5050403;28;20233;-84
2022/08/04 05:08:59;;;;;;;2.03;1.92;;;;;;;;;;5075310;28;20237;-84
2022/08/04 05:11:52;;;;;;;1.60;1.50;;;;;;;;;;5075045;28;20229;-83
2022/08/04 05:14:28;;;;;;;1.75;1.65;;;;;;;;;;5074753;28;20710;-83
2022/08/04 05:17:02;;;;;;;2.00;1.90;;;;;;;;;;5074891;28;20204;-84
2022/08/04 05:19:41;;;;;;;2.17;2.08;;;;;;;;;;5074999;28;20283;-83
2022/08/04 05:22:11;;;;;;;3.15;2.15;;;;;;;;;;5074231;28;20707;-82
2022/08/04 05:24:44;;;;;;;2.17;2.08;;;;;;;;;;5074646;28;20232;-83
2022/08/04 05:27:17;;;;;;;1.90;1.80;;;;;;;;;;5074346;28;20708;-79
2022/08/04 05:29:51;;;;;;;2.35;2.17;;;;;;;;;;5074725;28;20199;-80
2022/08/04 05:32:23;;;;;;;3.33;3.03;;;;;;;;;;5074362;28;20248;-80
2022/08/04 05:34:58;;;;;;;2.33;2.22;;;;;;;;;;5072708;28;20201;-79
2022/08/04 05:37:28;;;;;;;2.88;2.67;;;;;;;;;;5073648;28;20196;-79
2022/08/04 05:39:59;;;;;;;2.03;1.92;;;;;;;;;;5073525;28;20300;-79
2022/08/04 05:42:27;;;;;;;2.10;2.00;;;;;;;;;;5075125;28;20223;-81
2022/08/04 05:44:56;;;;;;;2.40;2.20;;;;;;;;;;5074129;28;20628;-80
2022/08/04 05:47:25;;;;;;;2.45;2.25;;;;;;;;;;5072729;28;20287;-80
2022/08/04 05:49:53;;;;;;;2.28;2.17;;;;;;;;;;5073299;28;20288;-80
2022/08/04 05:52:21;;;;;;;4.13;1.90;;;;;;;;;;5089215;28;20228;-79
2022/08/04 05:54:50;;;;;;;2.28;2.17;;;;;;;;;;5093379;28;20232;-79
2022/08/04 05:57:18;;;;;;;2.83;2.63;;;;;;;;;;5093045;28;20240;-79
2022/08/04 05:59:46;;;;;;;2.03;1.92;;;;;;;;;;5092967;28;20309;-79
2022/08/04 06:02:17;;;;;;;2.55;2.35;;;;;;;;;;5092513;28;20231;-79
2022/08/04 06:04:49;;;;;;;2.65;2.20;;;;;;;;;;5063726;28;20208;-79
2022/08/04 06:07:16;;;;;;;3.50;3.30;;;;;;;;;;5052556;28;20288;-80
2022/08/04 06:09:44;;;;;;;2.50;2.40;;;;;;;;;;5052293;28;20229;-79
2022/08/04 06:12:17;;;;;;;2.40;2.20;;;;;;;;;;5051955;28;20308;-80
2022/08/04 06:14:46;;;;;;;3.13;2.72;;;;;;;;;;5052316;28;20293;-80
2022/08/04 06:17:28;;;;;;;2.63;2.45;;;;;;;;;;5052257;28;20304;-80
2022/08/04 06:19:56;;;;;;;2.28;2.17;;;;;;;;;;5052258;28;20313;-80
2022/08/04 06:22:25;;;;;;;2.47;1.92;;;;;;;;;;5052110;28;20308;-80
2022/08/04 06:24:54;;;;;;;2.45;2.22;;;;;;;;;;5052025;28;20198;-80
2022/08/04 06:27:22;;;;;;;3.08;2.78;;;;;;;;;;5058997;28;20247;-80
2022/08/04 06:29:51;;;;;;;2.30;2.10;;;;;;;;;;5092460;28;20232;-79
2022/08/04 06:32:27;;;;;;;2.25;2.08;;;;;;;;;;5092308;28;20246;-78
2022/08/04 06:34:57;;;;;;;2.15;2.05;;;;;;;;;;5060160;28;20215;-79
2022/08/04 06:37:26;;;;;;;2.08;1.98;;;;;;;;;;5051630;28;20599;-78
2022/08/04 06:39:54;;;;;;;2.22;2.13;;;;;;;;;;5052633;28;20228;-80
2022/08/04 06:42:25;;;;;;;2.70;2.50;;;;;;;;;;5053750;28;20308;-81
2022/08/04 06:44:55;;;;;;;2.53;2.42;;;;;;;;;;5052737;28;20233;-81
2022/08/04 06:47:25;;;;;;;4.93;2.90;;;;;;;;;;5051573;28;20284;-80
2022/08/04 06:49:55;;;;;;;2.35;2.15;;;;;;;;;;5052253;28;20288;-81
2022/08/04 06:52:22;;;;;;;2.30;2.10;;;;;;;;;;5051985;28;20723;-80
2022/08/04 06:54:52;;;;;;;2.78;2.58;;;;;;;;;;5052772;28;20225;-81
2022/08/04 06:57:23;;;;;;;3.33;2.95;;;;;;;;;;5052292;28;20292;-81
2022/08/04 06:59:56;;;;;;;3.28;2.30;;;;;;;;;;5051898;28;20764;-80
2022/08/04 07:02:28;;;;;;;4.15;2.90;;;;;;;;;;5052630;28;20249;-81
2022/08/04 07:04:56;;;;;;;2.85;2.65;;;;;;;;;;5052530;28;20293;-81
2022/08/04 07:07:25;;;;;;;2.83;2.63;;;;;;;;;;5052227;28;20206;-81
2022/08/04 07:09:53;;;;;;;2.65;2.45;;;;;;;;;;5051819;28;20233;-81
2022/08/04 07:12:21;;;;;;;2.85;2.65;;;;;;;;;;5051279;28;20308;-82
2022/08/04 07:14:49;;;;;;;3.05;2.65;;;;;;;;;;5052244;28;20288;-81
2022/08/04 07:17:17;;;;;;;2.75;2.55;;;;;;;;;;5052780;28;20292;-79
2022/08/04 07:19:46;;;;;;;2.72;2.53;;;;;;;;;;5052648;28;20221;-82
2022/08/04 07:22:14;;;;;;;4.32;3.33;;;;;;;;;;5051465;28;20229;-82
2022/08/04 07:24:43;;;;;;;5.00;3.05;;;;;;;;;;5054228;28;20229;-87
2022/08/04 07:27:10;;;;;;;3.67;3.00;;;;;;;;;;5056577;28;20264;-80
2022/08/04 07:29:38;;;;;;;4.28;2.85;;;;;;;;;;5093139;28;20238;-81
2022/08/04 07:32:07;;;;;;;4.82;2.85;;;;;;;;;;5093675;28;20259;-80
2022/08/04 07:34:35;;;;;;;4.15;3.28;;;;;;;;;;5066405;28;20285;-80
2022/08/04 07:37:04;;;;;;;2.42;2.33;;;;;;;;;;5052654;28;20233;-80
2022/08/04 07:39:32;;;;;;;3.25;3.00;;;;;;;;;;5053804;28;20313;-80
2022/08/04 07:42:03;;;;;;;2.92;2.72;;;;;;;;;;5052667;28;20261;-80
2022/08/04 07:44:31;;;;;;;3.30;2.65;;;;;;;;;;5053121;28;20233;-80
2022/08/04 07:47:00;;;;;;;2.97;2.78;;;;;;;;;;5052511;28;20202;-80
2022/08/04 07:49:27;;;;;;;2.95;2.38;;;;;;;;;;5052425;28;20233;-79
2022/08/04 07:51:55;;;;;;;2.35;2.22;;;;;;;;;;5051776;28;20233;-81
2022/08/04 07:54:24;;;;;;;2.65;2.45;;;;;;;;;;5052729;28;20650;-80
2022/08/04 07:56:52;;;;;;;3.55;3.22;;;;;;;;;;5052226;28;20244;-81
2022/08/04 07:59:20;;;;;;;2.53;2.33;;;;;;;;;;5058025;28;20245;-80
2022/08/04 08:01:48;;;;;;;4.78;2.08;;;;;;;;;;5065872;28;20198;-81
2022/08/04 08:04:16;;;;;;;2.17;2.08;;;;;;;;;;5071702;28;20220;-81
2022/08/04 08:06:43;;;;;;;1.85;1.70;;;;;;;;;;5063247;28;20229;-81
2022/08/04 08:09:14;;;;;;;5.10;1.90;;;;;;;;;;5059442;28;20841;-82
2022/08/04 08:11:43;;;;;;;2.08;1.98;;;;;;;;;;5058358;28;20259;-82
2022/08/04 08:14:11;;;;;;;2.08;1.98;;;;;;;;;;5060073;28;20233;-83
2022/08/04 08:16:38;;;;;;;2.30;2.20;;;;;;;;;;5064640;28;20221;-81
2022/08/04 08:19:06;;;;;;;3.00;1.88;;;;;;;;;;5063370;28;20206;-82
2022/08/04 08:21:34;;;;;;;2.00;1.90;;;;;;;;;;5062144;28;20221;-82
2022/08/04 08:24:01;;;;;;;1.95;1.85;;;;;;;;;;5060323;28;20208;-83
2022/08/04 08:26:29;;;;;;;2.22;2.13;;;;;;;;;;5059481;28;20589;-82
2022/08/04 08:28:58;;;;;;;1.80;1.70;;;;;;;;;;5094970;28;20265;-83
2022/08/04 08:31:26;;;;;;;1.85;1.75;;;;;;;;;;5101156;28;20871;-82
2022/08/04 08:33:54;;;;;;;2.15;2.05;;;;;;;;;;5085528;28;20651;-81
2022/08/04 08:36:29;;;;;;;1.90;1.80;;;;;;;;;;5059575;28;20205;-82
2022/08/04 08:39:03;;;;;;;1.80;1.70;;;;;;;;;;5062925;28;20272;-81
2022/08/04 08:42:09;;;;;;;2.20;2.10;;;;;;;;;;5062924;28;20217;-81
2022/08/04 08:45:15;;;;;;;2.42;2.28;;;;;;;;;;5060419;28;20669;-83
2022/08/04 08:48:33;;;;;;;2.28;2.17;;;;;;;;;;5061937;28;20772;-84
2022/08/04 08:51:30;;;;;;;1.95;1.85;;;;;;;;;;5055568;28;20223;-83
2022/08/04 08:54:44;;;;;;;1.98;1.88;;;;;;;;;;5100648;22;20259;-84
2022/08/04 08:57:29;;;;;;;2.78;2.22;;;;;;;;;;5085541;28;20205;-82
2022/08/04 09:00:08;;;;;;;1.92;1.83;;;;;;;;;;5097588;28;20204;-83
2022/08/04 09:03:11;;;;;;;2.00;1.80;;;;;;;;;;5097090;28;20211;-83
2022/08/04 09:06:19;;;;;;;1.90;1.80;;;;;;;;;;5085505;22;20297;-87
2022/08/04 09:09:31;;;;;;;2.00;1.90;;;;;;;;;;5030327;28;20208;-86
2022/08/04 09:12:09;;;;;;;2.30;2.20;;;;;;;;;;5007519;28;20205;-85
2022/08/04 09:14:45;;;;;;;2.10;2.00;;;;;;;;;;5054177;28;20235;-83
2022/08/04 09:17:23;;;;;;;2.13;2.03;;;;;;;;;;5053821;28;20255;-83
2022/08/04 09:19:56;;;;;;;2.35;2.20;;;;;;;;;;5053833;28;20630;-84
2022/08/04 09:22:33;;;;;;;2.20;2.10;;;;;;;;;;5053752;28;20288;-83
2022/08/04 09:25:08;;;;;;;2.35;1.92;;;;;;;;;;5054104;28;20236;-83
2022/08/04 09:27:46;;;;;;;2.05;1.95;;;;;;;;;;5053268;28;20227;-82
2022/08/04 09:30:18;;;;;;;2.30;2.20;;;;;;;;;;5053042;28;20259;-82
2022/08/04 09:32:58;;;;;;;2.38;2.28;;;;;;;;;;5053174;28;20216;-84
2022/08/04 09:35:39;;;;;;;2.28;2.17;;;;;;;;;;5053463;28;20703;-83
2022/08/04 09:38:16;;;;;;;2.13;2.03;;;;;;;;;;5069762;28;20244;-83
2022/08/04 09:40:52;;;;;;;2.15;2.05;;;;;;;;;;5073039;28;20224;-84
2022/08/04 09:43:36;;;;;;;2.50;2.40;;;;;;;;;;5073238;28;20258;-84
2022/08/04 09:46:10;;;;;;;1.85;1.75;;;;;;;;;;5073127;28;20208;-84
2022/08/04 09:48:48;;;;;;;1.80;1.70;;;;;;;;;;5073623;28;20636;-83
2022/08/04 09:51:24;;;;;;;2.45;2.35;;;;;;;;;;5075196;28;20206;-84
2022/08/04 09:54:01;;;;;;;2.38;2.28;;;;;;;;;;5074842;28;20289;-83
2022/08/04 09:56:36;;;;;;;2.55;2.35;;;;;;;;;;5074318;28;20242;-84
2022/08/04 09:59:15;;;;;;;2.40;2.30;;;;;;;;;;5074532;28;20282;-83
2022/08/04 10:01:44;;;;;;;2.25;2.15;;;;;;;;;;5075116;28;20251;-83
2022/08/04 10:04:18;;;;;;;2.42;2.28;;;;;;;;;;5076029;28;20259;-85
2022/08/04 10:07:17;;;;;;;2.80;2.60;;;;;;;;;;5077417;28;20215;-83
2022/08/04 10:10:01;;;;;;;2.30;2.20;;;;;;;;;;5074999;28;20287;-83
2022/08/04 10:12:36;;;;;;;2.45;2.35;;;;;;;;;;5075082;28;20203;-84
2022/08/04 10:15:11;;;;;;;2.47;2.38;;;;;;;;;;5073702;28;20200;-85
2022/08/04 10:18:04;;;;;;;2.67;2.47;;;;;;;;;;5072695;28;20204;-84
2022/08/04 10:20:48;;;;;;;2.55;2.45;;;;;;;;;;5074648;28;20200;-85
2022/08/04 10:23:30;;;;;;;2.30;2.20;;;;;;;;;;5072783;28;20320;-82
2022/08/04 10:26:11;;;;;;;2.78;2.50;;;;;;;;;;5073204;28;20206;-85
2022/08/04 10:28:44;;;;;;;2.60;2.40;;;;;;;;;;5072896;28;20205;-85
2022/08/04 10:31:19;;;;;;;3.10;2.90;;;;;;;;;;5073949;28;20279;-85
2022/08/04 10:33:53;;;;;;;2.50;2.40;;;;;;;;;;5073352;28;20224;-83
2022/08/04 10:36:24;;;;;;;2.38;2.20;;;;;;;;;;5073055;28;20231;-84
2022/08/04 10:39:02;;;;;;;2.75;2.63;;;;;;;;;;5074000;28;20204;-84
2022/08/04 10:41:35;;;;;;;2.08;1.98;;;;;;;;;;5072977;28;20316;-84
2022/08/04 10:44:14;;;;;;;3.20;2.90;;;;;;;;;;5076018;28;20256;-83
2022/08/04 10:46:47;;;;;;;2.55;2.30;;;;;;;;;;5073667;28;20672;-84
2022/08/04 10:49:23;;;;;;;2.38;2.28;;;;;;;;;;5058304;28;20237;-84
2022/08/04 10:51:57;;;;;;;2.00;1.90;;;;;;;;;;5053072;28;20205;-84
2022/08/04 10:54:29;;;;;;;2.15;2.03;;;;;;;;;;5054119;28;20657;-83
2022/08/04 10:57:05;;;;;;;1.95;1.85;;;;;;;;;;5053805;28;20240;-84
2022/08/04 10:59:39;;;;;;;2.30;2.20;;;;;;;;;;5053157;28;20287;-85
2022/08/04 11:02:21;;;;;;;1.80;1.70;;;;;;;;;;5053991;28;20220;-84
2022/08/04 11:04:52;;;;;;;2.15;2.05;;;;;;;;;;5068604;28;20264;-84
2022/08/04 11:07:22;;;;;;;2.38;2.28;;;;;;;;;;5073204;28;20232;-84
2022/08/04 11:09:49;;;;;;;1.90;1.80;;;;;;;;;;5073372;28;20239;-85
2022/08/04 11:12:22;;;;;;;2.22;2.13;;;;;;;;;;5073005;28;20232;-85
2022/08/04 11:14:53;;;;;;;2.28;2.17;;;;;;;;;;5071876;28;20239;-85
2022/08/04 11:17:26;;;;;;;2.42;2.33;;;;;;;;;;5072873;28;20219;-84
2022/08/04 11:20:02;;;;;;;2.25;2.15;;;;;;;;;;5074149;28;20238;-85
2022/08/04 11:22:31;;;;;;;1.73;1.63;;;;;;;;;;5072033;28;20223;-86
2022/08/04 11:25:09;;;;;;;2.00;1.90;;;;;;;;;;5072163;28;20651;-85
2022/08/04 11:27:47;;;;;;;2.17;2.05;;;;;;;;;;5072918;28;20197;-84
2022/08/04 11:30:17;;;;;;;1.40;1.40;;;;;;;;;;5072503;28;20609;-85
2022/08/04 11:32:48;;;;;;;1.33;1.33;;;;;;;;;;5072863;28;20203;-83
2022/08/04 11:35:25;;;;;;;2.00;1.90;;;;;;;;;;5073183;28;20270;-83
2022/08/04 11:38:02;;;;;;;1.80;1.67;;;;;;;;;;5075625;28;20214;-84
2022/08/04 11:40:36;;;;;;;1.77;1.70;;;;;;;;;;5077516;28;20223;-82
2022/08/04 11:43:10;;;;;;;1.90;1.80;;;;;;;;;;5075856;28;20266;-85
2022/08/04 11:45:42;;;;;;;1.60;1.50;;;;;;;;;;5075524;28;20648;-84
2022/08/04 11:48:13;;;;;;;1.60;1.50;;;;;;;;;;5071127;28;20201;-83
2022/08/04 11:50:48;;;;;;;1.95;1.85;;;;;;;;;;5061387;28;20229;-83
2022/08/04 11:53:21;;;;;;;1.90;1.77;;;;;;;;;;5055660;28;20212;-83
2022/08/04 11:55:54;;;;;;;1.58;1.58;;;;;;;;;;5055316;28;20208;-84
2022/08/04 11:58:22;;;;;;;1.73;1.63;;;;;;;;;;5056132;28;20232;-84
2022/08/04 12:00:58;;;;;;;1.77;1.67;;;;;;;;;;5055734;28;20244;-88
2022/08/04 12:03:34;;;;;;;2.13;2.03;;;;;;;;;;5060939;28;20264;-83
2022/08/04 12:06:14;;;;;;;1.80;1.70;;;;;;;;;;5077589;28;20265;-83
2022/08/04 12:09:03;;;;;;;1.20;1.20;;;;;;;;;;5076879;28;20678;-83
2022/08/04 12:11:49;;;;;;;1.58;1.48;;;;;;;;;;5076974;28;20203;-86
2022/08/04 12:14:38;;;;;;;1.70;1.60;;;;;;;;;;5075359;28;20712;-84
2022/08/04 12:17:07;;;;;;;1.58;1.48;;;;;;;;;;5075870;28;20570;-85
2022/08/04 12:19:41;;;;;;;2.10;2.00;;;;;;;;;;5076543;28;20632;-84
2022/08/04 12:22:16;;;;;;;1.88;1.77;;;;;;;;;;5077345;28;20782;-86
2022/08/04 12:24:49;;;;;;;1.80;1.70;;;;;;;;;;5076548;28;20298;-85
2022/08/04 12:27:18;;;;;;;1.77;1.67;;;;;;;;;;5076755;28;20203;-83
2022/08/04 12:29:47;;;;;;;1.77;1.67;;;;;;;;;;5075642;28;20230;-84
2022/08/04 12:32:21;;;;;;;1.88;1.77;;;;;;;;;;5075712;28;20735;-83
2022/08/04 12:34:59;;;;;;;1.90;1.80;;;;;;;;;;5076156;28;20256;-85
2022/08/04 12:37:44;;;;;;;2.55;2.38;;;;;;;;;;5075078;28;20232;-82
2022/08/04 12:40:20;;;;;;;1.77;1.67;;;;;;;;;;5076158;28;20235;-83
2022/08/04 12:42:57;;;;;;;2.20;2.10;;;;;;;;;;5075115;28;20255;-81
2022/08/04 12:45:25;;;;;;;1.58;1.50;;;;;;;;;;5074892;28;20219;-84
2022/08/04 12:47:57;;;;;;;1.70;1.60;;;;;;;;;;5074005;28;20207;-82
2022/08/04 12:50:25;;;;;;;1.73;1.63;;;;;;;;;;5074994;28;20239;-83
2022/08/04 12:52:56;;;;;;;1.85;1.75;;;;;;;;;;5074461;28;20665;-83
2022/08/04 12:55:32;;;;;;;1.45;1.45;;;;;;;;;;5074468;28;20258;-83
2022/08/04 12:58:00;;;;;;;1.50;1.45;;;;;;;;;;5074888;28;20287;-82
2022/08/04 13:00:36;;;;;;;1.50;1.42;;;;;;;;;;5075738;28;20228;-83
2022/08/04 13:03:08;;;;;;;1.70;1.60;;;;;;;;;;5075580;28;20220;-82
2022/08/04 13:05:37;;;;;;;1.67;1.58;;;;;;;;;;5074756;28;20208;-83
2022/08/04 13:08:05;;;;;;;1.55;1.45;;;;;;;;;;5073695;28;20586;-83
2022/08/04 13:10:38;;;;;;;1.38;1.38;;;;;;;;;;5074795;28;20240;-84
2022/08/04 13:13:06;;;;;;;1.88;1.77;;;;;;;;;;5074570;28;20252;-82
2022/08/04 13:15:35;;;;;;;1.40;1.40;;;;;;;;;;5075122;28;20201;-82
2022/08/04 13:18:07;;;;;;;1.40;1.40;;;;;;;;;;5073979;28;20196;-83
2022/08/04 13:20:38;;;;;;;1.30;1.30;;;;;;;;;;5074204;28;20295;-83
2022/08/04 13:23:08;;;;;;;1.45;1.45;;;;;;;;;;5073893;28;20315;-82
2022/08/04 13:25:42;;;;;;;1.38;1.38;;;;;;;;;;5073953;28;20200;-83
2022/08/04 13:28:15;;;;;;;2.00;1.90;;;;;;;;;;5073852;28;20204;-83
2022/08/04 13:30:46;;;;;;;1.27;1.27;;;;;;;;;;5073609;28;20291;-84
2022/08/04 13:33:13;;;;;;;1.60;1.50;;;;;;;;;;5074628;28;20221;-83
2022/08/04 13:35:45;;;;;;;1.63;1.52;;;;;;;;;;5074946;28;20196;-83
2022/08/04 13:38:15;;;;;;;1.60;1.50;;;;;;;;;;5076608;28;20204;-83
2022/08/04 13:40:45;;;;;;;1.45;1.35;;;;;;;;;;5076822;28;20231;-83
2022/08/04 13:43:25;;;;;;;1.10;1.10;;;;;;;;;;5075960;28;20751;-83
2022/08/04 13:46:00;;;;;;;1.88;1.50;;;;;;;;;;5079631;28;20206;-83
2022/08/04 13:48:33;;;;;;;1.40;1.30;;;;;;;;;;5077585;28;20738;-83
2022/08/04 13:51:04;;;;;;;1.85;1.75;;;;;;;;;;5077703;28;20208;-83
2022/08/04 13:53:32;;;;;;;1.65;1.55;;;;;;;;;;5076021;28;20221;-83
2022/08/04 13:56:04;;;;;;;1.25;1.25;;;;;;;;;;5074410;28;20223;-83
2022/08/04 13:58:33;;;;;;;1.88;1.77;;;;;;;;;;5075069;28;20215;-83
2022/08/04 14:01:04;;;;;;;1.60;1.50;;;;;;;;;;5074274;28;20212;-83
2022/08/04 14:03:36;;;;;;;1.65;1.58;;;;;;;;;;5074963;28;20263;-84
2022/08/04 14:06:23;;;;;;;1.40;1.40;;;;;;;;;;5075028;28;20231;-85
2022/08/04 14:08:54;;;;;;;1.35;1.27;;;;;;;;;;5073581;28;20287;-85
2022/08/04 14:11:34;;;;;;;1.15;1.15;;;;;;;;;;5073036;28;20212;-85
2022/08/04 14:14:14;;;;;;;1.10;1.10;;;;;;;;;;5072319;28;20727;-85
2022/08/04 14:17:01;;;;;;;1.40;1.40;;;;;;;;;;5071950;28;20211;-85
2022/08/04 14:19:52;;;;;;;1.00;1.00;;;;;;;;;;5072486;28;20258;-85
2022/08/04 14:22:36;;;;;;;1.17;1.17;;;;;;;;;;5072446;28;20592;-85
2022/08/04 14:25:09;;;;;;;1.30;1.20;;;;;;;;;;5072307;28;20272;-84
2022/08/04 14:27:46;;;;;;;3.50;1.48;;;;;;;;;;5055624;28;20211;-85
2022/08/04 14:30:28;;;;;;;1.20;1.20;;;;;;;;;;5052271;28;20203;-85
2022/08/04 14:33:02;;;;;;;1.10;1.10;;;;;;;;;;5051999;28;20220;-84
2022/08/04 14:35:31;;;;;;;1.38;1.35;;;;;;;;;;5051897;28;20665;-85
2022/08/04 14:38:02;;;;;;;1.40;1.40;;;;;;;;;;5068555;28;20299;-85
2022/08/04 14:40:31;;;;;;;1.60;1.50;;;;;;;;;;5072302;28;20231;-84
2022/08/04 14:43:01;;;;;;;1.33;1.33;;;;;;;;;;5071927;28;20768;-84
2022/08/04 14:45:31;;;;;;;1.10;1.10;;;;;;;;;;5071774;28;20224;-84
2022/08/04 14:47:59;;;;;;;1.95;1.83;;;;;;;;;;5071758;28;20657;-86
2022/08/04 14:50:37;;;;;;;1.77;1.67;;;;;;;;;;5072183;28;20200;-85
2022/08/04 14:53:08;;;;;;;1.73;1.50;;;;;;;;;;5072117;28;20227;-85
2022/08/04 14:55:37;;;;;;;1.58;1.50;;;;;;;;;;5071647;28;20686;-85
2022/08/04 14:58:06;;;;;;;1.60;1.50;;;;;;;;;;5071915;28;20204;-85
2022/08/04 15:00:36;;;;;;;1.15;1.15;;;;;;;;;;5071416;28;20740;-85
2022/08/04 15:03:07;;;;;;;3.55;1.50;;;;;;;;;;5072045;28;20248;-84
2022/08/04 15:05:35;;;;;;;1.67;1.58;;;;;;;;;;5072305;28;20290;-84
2022/08/04 15:08:03;;;;;;;1.30;1.25;;;;;;;;;;5071990;28;20232;-85
2022/08/04 15:10:30;;;;;;;1.33;1.33;;;;;;;;;;5072356;28;20243;-84
2022/08/04 15:12:58;;;;;;;1.27;1.27;;;;;;;;;;5072367;28;20658;-84
2022/08/04 15:15:27;;;;;;;1.60;1.50;;;;;;;;;;5076210;28;20659;-84
2022/08/04 15:17:55;;;;;;;1.50;1.50;;;;;;;;;;5075624;28;20281;-85
2022/08/04 15:20:23;;;;;;;1.88;1.73;;;;;;;;;;5075667;28;20243;-85
2022/08/04 15:22:51;;;;;;;1.55;1.45;;;;;;;;;;5075729;28;20251;-85
2022/08/04 15:25:19;;;;;;;1.55;1.50;;;;;;;;;;5075843;28;20226;-84
2022/08/04 15:27:48;;;;;;;1.20;1.20;;;;;;;;;;5075255;28;20239;-84
2022/08/04 15:30:17;;;;;;;1.05;1.05;;;;;;;;;;5075540;28;20283;-84
2022/08/04 15:32:52;;;;;;;1.50;1.40;;;;;;;;;;5075463;28;20235;-84
2022/08/04 15:35:23;;;;;;;1.10;1.10;;;;;;;;;;5075326;28;20288;-84
2022/08/04 15:38:00;;;;;;;1.10;1.10;;;;;;;;;;5075168;28;20619;-85
2022/08/04 15:40:30;;;;;;;1.13;1.13;;;;;;;;;;5067667;28;20235;-84
2022/08/04 15:43:11;;;;;;;1.23;1.20;;;;;;;;;;5075325;28;20642;-84